createdAt,value
2018-07-02T00:00:14.494Z,90.99
2018-07-02T00:02:43.750Z,91.37
2018-07-02T00:05:12.934Z,91.39
2018-07-02T00:07:42.154Z,91.09
2018-07-02T00:10:11.444Z,90.11
2018-07-02T00:12:40.652Z,90.07
2018-07-02T00:15:09.996Z,90.59
2018-07-02T00:17:39.265Z,91.24
2018-07-02T00:20:08.766Z,91.73
2018-07-02T00:22:37.970Z,92.23
2018-07-02T00:25:07.428Z,92.81
2018-07-02T00:27:38.333Z,92.43
2018-07-02T00:30:07.581Z,93.22
2018-07-02T00:32:36.798Z,93.36
2018-07-02T00:35:06.664Z,93.54
2018-07-02T00:37:35.896Z,93.67
2018-07-02T00:40:05.221Z,93.70
2018-07-02T00:42:34.438Z,94.03
2018-07-02T00:45:03.722Z,94.45
2018-07-02T00:47:32.985Z,94.46
2018-07-02T00:50:02.177Z,95.00
2018-07-02T00:52:31.418Z,95.28
2018-07-02T00:55:00.635Z,95.56
2018-07-02T00:57:29.938Z,95.29
2018-07-02T01:00:10.250Z,95.20
2018-07-02T01:02:39.480Z,95.34
2018-07-02T01:05:12.190Z,95.94
2018-07-02T01:07:42.095Z,96.36
2018-07-02T01:10:11.294Z,96.43
2018-07-02T01:12:40.590Z,96.43
2018-07-02T01:15:10.045Z,96.10
2018-07-02T01:17:39.278Z,96.00
2018-07-02T01:20:08.513Z,96.08
2018-07-02T01:22:37.751Z,96.34
2018-07-02T01:25:07.199Z,96.71
2018-07-02T01:27:36.366Z,96.64
2018-07-02T01:30:06.167Z,96.87
2018-07-02T01:32:35.387Z,97.67
2018-07-02T01:35:04.718Z,97.91
2018-07-02T01:37:35.520Z,96.20
2018-07-02T01:40:04.809Z,96.45
2018-07-02T01:42:34.051Z,96.11
2018-07-02T01:45:03.277Z,96.46
2018-07-02T01:47:32.431Z,95.82
2018-07-02T01:50:01.694Z,95.14
2018-07-02T01:52:30.913Z,95.46
2018-07-02T01:55:00.119Z,95.59
2018-07-02T01:57:29.329Z,94.49
2018-07-02T01:59:58.545Z,94.08
2018-07-02T02:02:27.767Z,94.86
2018-07-02T02:04:57.051Z,94.46
2018-07-02T02:07:26.290Z,94.61
2018-07-02T02:09:55.601Z,95.01
2018-07-02T02:12:24.795Z,95.07
2018-07-02T02:14:54.000Z,95.67
2018-07-02T02:17:23.274Z,95.95
2018-07-02T02:19:52.497Z,96.06
2018-07-02T02:22:21.694Z,96.21
2018-07-02T02:24:50.907Z,96.07
2018-07-02T02:27:20.212Z,96.24
2018-07-02T02:29:49.458Z,96.85
2018-07-02T02:32:18.776Z,97.17
2018-07-02T02:34:47.995Z,96.96
2018-07-02T02:37:17.221Z,97.33
2018-07-02T02:39:46.600Z,97.54
2018-07-02T02:42:15.915Z,97.76
2018-07-02T02:44:45.525Z,97.43
2018-07-02T02:47:14.701Z,97.86
2018-07-02T02:49:43.929Z,98.14
2018-07-02T02:52:13.139Z,98.02
2018-07-02T02:54:42.364Z,98.64
2018-07-02T02:57:11.799Z,98.11
2018-07-02T02:59:41.093Z,98.35
2018-07-02T03:02:10.296Z,98.60
2018-07-02T03:04:39.561Z,98.63
2018-07-02T03:07:08.994Z,98.41
2018-07-02T03:09:38.199Z,98.29
2018-07-02T03:12:07.461Z,99.03
2018-07-02T03:14:36.682Z,99.13
2018-07-02T03:17:05.922Z,99.08
2018-07-02T03:19:35.163Z,99.24
2018-07-02T03:22:04.441Z,99.03
2018-07-02T03:24:36.320Z,99.12
2018-07-02T03:27:05.598Z,99.03
2018-07-02T03:29:34.818Z,99.25
2018-07-02T03:32:04.045Z,98.99
2018-07-02T03:34:33.215Z,98.63
2018-07-02T03:37:02.465Z,99.15
2018-07-02T03:39:31.690Z,98.82
2018-07-02T03:42:00.913Z,98.67
2018-07-02T03:44:30.133Z,98.79
2018-07-02T03:46:59.471Z,98.49
2018-07-02T03:49:28.665Z,98.44
2018-07-02T03:51:57.952Z,98.46
2018-07-02T03:54:27.116Z,98.52
2018-07-02T03:56:56.417Z,98.43
2018-07-02T03:59:25.593Z,98.52
2018-07-02T04:01:54.901Z,97.71
2018-07-02T04:04:24.203Z,97.26
2018-07-02T04:06:53.414Z,97.45
2018-07-02T04:09:22.694Z,97.51
2018-07-02T04:11:51.931Z,97.43
2018-07-02T04:14:21.359Z,97.13
2018-07-02T04:16:50.572Z,97.46
2018-07-02T04:19:19.736Z,96.45
2018-07-02T04:21:48.944Z,97.16
2018-07-02T04:24:18.163Z,96.77
2018-07-02T04:26:47.342Z,96.57
2018-07-02T04:29:16.606Z,96.07
2018-07-02T04:31:45.879Z,95.71
2018-07-02T04:34:15.120Z,94.25
2018-07-02T04:36:44.328Z,93.24
2018-07-02T04:39:13.572Z,92.85
2018-07-02T04:41:42.759Z,92.31
2018-07-02T04:44:11.958Z,92.16
2018-07-02T04:46:41.154Z,90.32
2018-07-02T04:49:11.177Z,90.87
2018-07-02T04:51:40.417Z,89.78
2018-07-02T04:54:09.683Z,89.16
2018-07-02T04:56:39.086Z,89.57
2018-07-02T04:59:08.331Z,89.48
2018-07-02T05:01:37.670Z,89.51
2018-07-02T05:04:06.899Z,88.96
2018-07-02T05:06:36.164Z,87.62
2018-07-02T05:09:07.917Z,86.63
2018-07-02T05:11:37.225Z,85.26
2018-07-02T05:14:06.526Z,86.58
2018-07-02T05:16:35.811Z,86.60
2018-07-02T05:19:05.219Z,85.02
2018-07-02T05:21:34.466Z,85.43
2018-07-02T05:24:03.801Z,84.50
2018-07-02T05:26:33.016Z,84.97
2018-07-02T05:29:02.442Z,83.53
2018-07-02T05:31:31.685Z,83.02
2018-07-02T05:34:00.908Z,82.71
2018-07-02T05:36:31.018Z,82.26
2018-07-02T05:39:00.338Z,90.28
2018-07-02T05:41:29.553Z,81.81
2018-07-02T05:43:58.756Z,78.77
2018-07-02T05:46:27.947Z,77.83
2018-07-02T05:48:57.199Z,79.48
2018-07-02T05:51:26.461Z,80.02
2018-07-02T05:53:55.678Z,78.67
2018-07-02T05:56:24.865Z,78.83
2018-07-02T05:58:54.305Z,78.15
2018-07-02T06:01:23.812Z,77.03
2018-07-02T06:03:53.088Z,77.44
2018-07-02T06:06:22.326Z,77.79
2018-07-02T06:08:51.535Z,76.42
2018-07-02T06:11:20.724Z,77.26
2018-07-02T06:13:49.917Z,75.08
2018-07-02T06:16:19.203Z,73.46
2018-07-02T06:18:48.374Z,72.01
2018-07-02T06:21:17.559Z,72.39
2018-07-02T06:23:46.812Z,73.79
2018-07-02T06:26:16.019Z,70.15
2018-07-02T06:28:45.205Z,70.50
2018-07-02T06:31:14.416Z,69.19
2018-07-02T06:33:43.604Z,66.81
2018-07-02T06:36:12.785Z,69.79
2018-07-02T06:38:42.031Z,67.57
2018-07-02T06:41:11.689Z,67.16
2018-07-02T06:43:40.850Z,67.36
2018-07-02T06:46:10.138Z,67.49
2018-07-02T06:48:39.318Z,65.48
2018-07-02T06:51:08.603Z,65.73
2018-07-02T06:53:37.889Z,65.37
2018-07-02T06:56:07.184Z,65.79
2018-07-02T06:58:36.380Z,66.77
2018-07-02T07:01:05.574Z,64.47
2018-07-02T07:03:34.764Z,63.19
2018-07-02T07:06:03.999Z,65.05
2018-07-02T07:08:33.278Z,63.43
2018-07-02T07:11:02.500Z,63.03
2018-07-02T07:13:31.688Z,63.55
2018-07-02T07:16:00.935Z,60.85
2018-07-02T07:18:30.123Z,56.63
2018-07-02T07:20:59.326Z,57.14
2018-07-02T07:23:28.674Z,60.31
2018-07-02T07:25:57.809Z,61.12
2018-07-02T07:28:26.952Z,59.63
2018-07-02T07:30:56.192Z,58.77
2018-07-02T07:33:25.365Z,57.65
2018-07-02T07:35:54.480Z,57.84
2018-07-02T07:38:23.875Z,57.87
2018-07-02T07:40:53.549Z,57.84
2018-07-02T07:43:22.713Z,57.36
2018-07-02T07:45:51.866Z,56.97
2018-07-02T07:48:21.122Z,57.54
2018-07-02T07:50:50.292Z,57.71
2018-07-02T07:53:19.542Z,55.41
2018-07-02T07:55:48.661Z,56.62
2018-07-02T07:58:17.796Z,56.58
2018-07-02T08:00:46.990Z,57.08
2018-07-02T08:03:16.130Z,53.32
2018-07-02T08:05:45.268Z,53.91
2018-07-02T08:08:14.401Z,53.43
2018-07-02T08:10:43.567Z,50.40
2018-07-02T08:13:12.744Z,49.83
2018-07-02T08:15:41.936Z,50.74
2018-07-02T08:18:11.060Z,51.51
2018-07-02T08:20:40.229Z,50.87
2018-07-02T08:23:09.579Z,50.19
2018-07-02T08:25:38.762Z,48.48
2018-07-02T08:28:07.906Z,49.80
2018-07-02T08:30:37.078Z,49.72
2018-07-02T08:33:06.408Z,48.92
2018-07-02T08:35:35.553Z,50.54
2018-07-02T08:38:04.806Z,50.37
2018-07-02T08:40:34.031Z,52.29
2018-07-02T08:43:03.178Z,47.96
2018-07-02T08:45:32.361Z,48.61
2018-07-02T08:48:01.646Z,49.55
2018-07-02T08:50:30.795Z,51.41
2018-07-02T08:53:00.130Z,49.71
2018-07-02T08:55:29.264Z,48.93
2018-07-02T08:57:59.048Z,46.93
2018-07-02T09:00:28.197Z,49.71
2018-07-02T09:02:57.363Z,46.52
2018-07-02T09:05:26.485Z,48.39
2018-07-02T09:07:55.654Z,45.34
2018-07-02T09:10:24.828Z,45.04
2018-07-02T09:12:53.950Z,45.61
2018-07-02T09:15:23.077Z,47.18
2018-07-02T09:17:52.273Z,45.31
2018-07-02T09:20:21.483Z,46.84
2018-07-02T09:22:50.683Z,48.17
2018-07-02T09:25:19.875Z,46.43
2018-07-02T09:27:49.029Z,45.21
2018-07-02T09:30:18.193Z,44.85
2018-07-02T09:32:47.485Z,45.60
2018-07-02T09:35:16.698Z,45.49
2018-07-02T09:37:45.862Z,47.92
2018-07-02T09:40:15.021Z,47.15
2018-07-02T09:42:44.165Z,45.43
2018-07-02T09:45:13.914Z,43.81
2018-07-02T09:47:43.091Z,44.48
2018-07-02T09:50:12.250Z,46.02
2018-07-02T09:52:41.406Z,45.31
2018-07-02T09:55:10.693Z,44.48
2018-07-02T09:57:39.834Z,46.25
2018-07-02T10:00:09.054Z,46.88
2018-07-02T10:02:38.318Z,44.96
2018-07-02T10:05:07.658Z,44.58
2018-07-02T10:07:36.793Z,44.91
2018-07-02T10:10:05.974Z,45.15
2018-07-02T10:12:35.117Z,44.09
2018-07-02T10:15:05.102Z,44.88
2018-07-02T10:17:34.272Z,44.29
2018-07-02T10:20:03.500Z,45.25
2018-07-02T10:22:32.692Z,43.03
2018-07-02T10:25:01.877Z,44.32
2018-07-02T10:27:31.058Z,45.91
2018-07-02T10:30:00.238Z,43.54
2018-07-02T10:32:29.428Z,44.87
2018-07-02T10:34:58.533Z,44.41
2018-07-02T10:37:27.680Z,43.44
2018-07-02T10:39:57.546Z,45.95
2018-07-02T10:42:26.695Z,44.50
2018-07-02T10:44:55.853Z,40.59
2018-07-02T10:47:25.040Z,43.27
2018-07-02T10:49:54.338Z,42.86
2018-07-02T10:52:23.504Z,42.80
2018-07-02T10:54:52.659Z,41.85
2018-07-02T10:57:21.813Z,42.89
2018-07-02T10:59:50.966Z,41.97
2018-07-02T11:02:20.096Z,42.43
2018-07-02T11:04:49.223Z,42.69
2018-07-02T11:07:18.429Z,41.58
2018-07-02T11:09:47.594Z,44.06
2018-07-02T11:12:16.763Z,43.87
2018-07-02T11:14:45.924Z,43.21
2018-07-02T11:17:15.123Z,42.81
2018-07-02T11:19:44.212Z,41.58
2018-07-02T11:22:13.369Z,44.64
2018-07-02T11:24:42.532Z,42.70
2018-07-02T11:27:11.672Z,39.66
2018-07-02T11:29:41.267Z,39.78
2018-07-02T11:32:10.421Z,41.34
2018-07-02T11:34:39.529Z,39.84
2018-07-02T11:37:08.922Z,41.31
2018-07-02T11:39:38.090Z,39.44
2018-07-02T11:42:07.256Z,39.57
2018-07-02T11:44:36.449Z,40.23
2018-07-02T11:47:05.698Z,38.93
2018-07-02T11:49:34.886Z,41.30
2018-07-02T11:52:03.997Z,39.64
2018-07-02T11:54:33.129Z,42.82
2018-07-02T11:57:02.316Z,39.55
2018-07-02T11:59:31.957Z,40.12
2018-07-02T12:02:01.237Z,38.06
2018-07-02T12:04:30.235Z,41.26
2018-07-02T12:06:59.584Z,38.61
2018-07-02T12:09:28.690Z,40.22
2018-07-02T12:11:57.883Z,40.34
2018-07-02T12:14:27.058Z,38.42
2018-07-02T12:16:56.474Z,41.26
2018-07-02T12:19:25.608Z,39.27
2018-07-02T12:21:54.757Z,39.48
2018-07-02T12:24:23.902Z,40.17
2018-07-02T12:26:53.049Z,42.53
2018-07-02T12:29:22.249Z,38.99
2018-07-02T12:31:51.376Z,38.45
2018-07-02T12:34:20.574Z,38.95
2018-07-02T12:36:49.701Z,39.57
2018-07-02T12:39:18.825Z,40.45
2018-07-02T12:41:47.978Z,38.69
2018-07-02T12:44:17.141Z,39.97
2018-07-02T12:46:46.308Z,37.28
2018-07-02T12:49:15.809Z,38.29
2018-07-02T12:51:45.056Z,36.94
2018-07-02T12:54:14.316Z,37.94
2018-07-02T12:56:43.425Z,37.77
2018-07-02T12:59:12.630Z,40.16
2018-07-02T13:01:41.816Z,39.90
2018-07-02T13:04:10.979Z,38.93
2018-07-02T13:06:40.117Z,40.35
2018-07-02T13:09:12.240Z,40.73
2018-07-02T13:11:41.467Z,37.85
2018-07-02T13:14:11.459Z,38.28
2018-07-02T13:16:40.641Z,40.68
2018-07-02T13:19:09.849Z,38.01
2018-07-02T13:21:39.192Z,37.75
2018-07-02T13:24:08.403Z,38.43
2018-07-02T13:26:38.133Z,41.17
2018-07-02T13:29:07.507Z,38.55
2018-07-02T13:31:36.671Z,36.87
2018-07-02T13:34:05.813Z,41.50
2018-07-02T13:36:35.031Z,39.74
2018-07-02T13:39:05.304Z,37.58
2018-07-02T13:41:34.468Z,37.94
2018-07-02T13:44:04.104Z,38.78
2018-07-02T13:46:33.251Z,39.33
2018-07-02T13:49:02.412Z,37.82
2018-07-02T13:51:31.509Z,39.79
2018-07-02T13:54:00.687Z,36.89
2018-07-02T13:56:29.870Z,37.82
2018-07-02T13:58:59.022Z,36.99
2018-07-02T14:01:28.210Z,39.13
2018-07-02T14:03:57.358Z,38.39
2018-07-02T14:06:26.462Z,37.31
2018-07-02T14:08:55.599Z,37.04
2018-07-02T14:11:24.761Z,38.05
2018-07-02T14:13:53.972Z,37.22
2018-07-02T14:16:23.331Z,36.76
2018-07-02T14:18:52.568Z,41.25
2018-07-02T14:21:21.729Z,37.99
2018-07-02T14:23:50.919Z,37.63
2018-07-02T14:26:20.063Z,38.33
2018-07-02T14:28:49.873Z,38.17
2018-07-02T14:31:20.007Z,37.83
2018-07-02T14:33:49.196Z,38.68
2018-07-02T14:36:18.373Z,39.33
2018-07-02T14:38:47.554Z,37.76
2018-07-02T14:41:16.873Z,38.51
2018-07-02T14:43:46.045Z,37.36
2018-07-02T14:46:15.269Z,39.31
2018-07-02T14:48:44.489Z,37.44
2018-07-02T14:51:13.691Z,36.92
2018-07-02T14:53:42.908Z,37.00
2018-07-02T14:56:12.596Z,39.40
2018-07-02T14:58:41.737Z,39.33
2018-07-02T15:01:10.859Z,37.62
2018-07-02T15:03:40.060Z,36.82
2018-07-02T15:06:09.227Z,37.18
2018-07-02T15:08:38.418Z,37.89
2018-07-02T15:11:07.761Z,38.58
2018-07-02T15:13:36.941Z,38.54
2018-07-02T15:16:06.179Z,39.40
2018-07-02T15:18:35.364Z,38.31
2018-07-02T15:21:04.544Z,37.74
2018-07-02T15:23:33.766Z,37.90
2018-07-02T15:26:02.913Z,38.12
2018-07-02T15:28:32.034Z,37.12
2018-07-02T15:31:01.225Z,38.02
2018-07-02T15:33:30.360Z,36.96
2018-07-02T15:35:59.491Z,36.82
2018-07-02T15:38:28.693Z,37.25
2018-07-02T15:40:58.888Z,37.33
2018-07-02T15:43:28.006Z,37.72
2018-07-02T15:45:57.178Z,37.79
2018-07-02T15:48:26.785Z,37.66
2018-07-02T15:50:55.961Z,36.85
2018-07-02T15:53:25.120Z,36.74
2018-07-02T15:55:54.302Z,37.90
2018-07-02T15:58:23.438Z,38.18
2018-07-02T16:00:52.634Z,36.81
2018-07-02T16:03:22.285Z,37.02
2018-07-02T16:05:51.465Z,37.14
2018-07-02T16:08:20.730Z,37.72
2018-07-02T16:10:50.010Z,38.08
2018-07-02T16:13:19.128Z,39.30
2018-07-02T16:15:48.314Z,37.50
2018-07-02T16:18:17.581Z,36.54
2018-07-02T16:20:46.725Z,37.66
2018-07-02T16:23:15.878Z,38.62
2018-07-02T16:25:45.058Z,38.24
2018-07-02T16:28:14.204Z,38.60
2018-07-02T16:30:43.369Z,40.45
2018-07-02T16:33:12.521Z,40.73
2018-07-02T16:35:41.709Z,38.17
2018-07-02T16:38:10.797Z,38.75
2018-07-02T16:40:39.993Z,37.51
2018-07-02T16:43:09.257Z,38.75
2018-07-02T16:45:38.455Z,38.31
2018-07-02T16:48:07.987Z,38.24
2018-07-02T16:50:37.308Z,39.32
2018-07-02T16:53:06.596Z,40.42
2018-07-02T16:55:35.758Z,40.16
2018-07-02T16:58:05.214Z,39.02
2018-07-02T17:00:34.430Z,39.38
2018-07-02T17:03:03.602Z,40.54
2018-07-02T17:05:32.827Z,39.14
2018-07-02T17:08:02.071Z,40.39
2018-07-02T17:10:31.334Z,39.13
2018-07-02T17:13:00.534Z,40.00
2018-07-02T17:15:29.755Z,40.87
2018-07-02T17:17:59.009Z,39.71
2018-07-02T17:20:28.149Z,40.09
2018-07-02T17:22:57.347Z,40.36
2018-07-02T17:25:26.510Z,39.87
2018-07-02T17:27:55.714Z,41.82
2018-07-02T17:30:24.900Z,42.47
2018-07-02T17:32:54.095Z,41.92
2018-07-02T17:35:23.268Z,42.61
2018-07-02T17:37:52.436Z,42.31
2018-07-02T17:40:21.632Z,43.04
2018-07-02T17:42:50.741Z,44.22
2018-07-02T17:45:19.973Z,43.49
2018-07-02T17:47:49.171Z,44.63
2018-07-02T17:50:18.342Z,44.95
2018-07-02T17:52:47.500Z,44.58
2018-07-02T17:55:16.677Z,44.33
2018-07-02T17:57:45.801Z,45.14
2018-07-02T18:00:18.422Z,46.78
2018-07-02T18:02:47.688Z,46.65
2018-07-02T18:05:17.052Z,47.34
2018-07-02T18:07:46.268Z,47.41
2018-07-02T18:10:15.534Z,48.31
2018-07-02T18:12:44.974Z,47.40
2018-07-02T18:15:14.164Z,47.77
2018-07-02T18:17:43.350Z,48.78
2018-07-02T18:20:12.589Z,48.52
2018-07-02T18:22:41.925Z,49.00
2018-07-02T18:25:11.590Z,49.60
2018-07-02T18:27:40.775Z,49.70
2018-07-02T18:30:10.119Z,51.07
2018-07-02T18:32:39.315Z,51.10
2018-07-02T18:35:08.730Z,51.79
2018-07-02T18:37:38.204Z,52.22
2018-07-02T18:40:08.398Z,52.14
2018-07-02T18:42:37.666Z,52.71
2018-07-02T18:45:07.624Z,53.33
2018-07-02T18:47:38.598Z,53.83
2018-07-02T18:50:07.898Z,54.16
2018-07-02T18:52:37.194Z,54.49
2018-07-02T18:55:06.985Z,55.76
2018-07-02T18:57:36.195Z,56.73
2018-07-02T19:00:06.394Z,57.42
2018-07-02T19:02:35.564Z,57.46
2018-07-02T19:05:05.267Z,58.27
2018-07-02T19:07:34.482Z,59.20
2018-07-02T19:10:03.757Z,59.92
2018-07-02T19:12:33.394Z,60.01
2018-07-02T19:15:02.666Z,60.41
2018-07-02T19:17:31.901Z,61.54
2018-07-02T19:20:01.117Z,62.03
2018-07-02T19:22:30.317Z,62.89
2018-07-02T19:24:59.750Z,64.27
2018-07-02T19:27:28.969Z,65.77
2018-07-02T19:29:58.248Z,67.18
2018-07-02T19:32:27.468Z,67.57
2018-07-02T19:34:56.659Z,64.62
2018-07-02T19:37:25.921Z,62.13
2018-07-02T19:39:55.182Z,64.09
2018-07-02T19:42:24.440Z,65.28
2018-07-02T19:44:53.687Z,65.28
2018-07-02T19:47:22.943Z,66.57
2018-07-02T19:49:52.230Z,65.23
2018-07-02T19:52:21.552Z,64.53
2018-07-02T19:54:50.773Z,64.38
2018-07-02T19:57:19.991Z,65.09
2018-07-02T19:59:49.341Z,65.91
2018-07-02T20:02:18.566Z,65.58
2018-07-02T20:04:47.832Z,66.52
2018-07-02T20:07:17.139Z,68.85
2018-07-02T20:09:46.436Z,72.71
2018-07-02T20:12:15.645Z,73.11
2018-07-02T20:14:44.866Z,73.72
2018-07-02T20:17:14.086Z,74.50
2018-07-02T20:19:43.313Z,75.37
2018-07-02T20:22:12.641Z,76.23
2018-07-02T20:24:41.881Z,77.06
2018-07-02T20:27:11.127Z,77.42
2018-07-02T20:29:40.324Z,76.81
2018-07-02T20:32:09.637Z,77.11
2018-07-02T20:34:39.125Z,76.42
2018-07-02T20:37:08.462Z,75.68
2018-07-02T20:39:37.700Z,76.29
2018-07-02T20:42:06.941Z,77.08
2018-07-02T20:44:36.160Z,77.87
2018-07-02T20:47:05.381Z,77.87
2018-07-02T20:49:34.594Z,79.38
2018-07-02T20:52:03.860Z,79.76
2018-07-02T20:54:33.053Z,79.69
2018-07-02T20:57:02.283Z,79.35
2018-07-02T20:59:31.530Z,80.06
2018-07-02T21:02:00.787Z,80.70
2018-07-02T21:04:30.034Z,81.65
2018-07-02T21:06:59.238Z,82.18
2018-07-02T21:09:28.422Z,81.83
2018-07-02T21:11:57.627Z,82.55
2018-07-02T21:14:26.929Z,82.04
2018-07-02T21:16:56.172Z,82.55
2018-07-02T21:19:25.499Z,82.90
2018-07-02T21:21:55.662Z,84.21
2018-07-02T21:24:24.889Z,84.07
2018-07-02T21:26:54.126Z,85.26
2018-07-02T21:29:23.294Z,85.71
2018-07-02T21:31:52.475Z,86.01
2018-07-02T21:34:21.793Z,85.48
2018-07-02T21:36:51.007Z,85.07
2018-07-02T21:39:20.205Z,84.95
2018-07-02T21:41:49.368Z,85.86
2018-07-02T21:44:18.566Z,86.64
2018-07-02T21:46:47.775Z,86.92
2018-07-02T21:49:17.009Z,87.61
2018-07-02T21:51:46.212Z,88.16
2018-07-02T21:54:15.411Z,88.00
2018-07-02T21:56:44.604Z,87.55
2018-07-02T21:59:13.845Z,87.97
2018-07-02T22:01:43.045Z,87.65
2018-07-02T22:04:12.261Z,87.46
2018-07-02T22:06:41.502Z,87.75
2018-07-02T22:09:12.238Z,87.68
2018-07-02T22:11:41.435Z,88.18
2018-07-02T22:14:10.663Z,88.46
2018-07-02T22:16:39.841Z,87.79
2018-07-02T22:19:10.085Z,87.85
2018-07-02T22:21:39.321Z,88.02
2018-07-02T22:24:08.922Z,89.28
2018-07-02T22:26:38.876Z,89.75
2018-07-02T22:29:08.425Z,90.33
2018-07-02T22:31:37.680Z,91.70
2018-07-02T22:34:06.816Z,92.42
2018-07-02T22:36:36.065Z,91.85
2018-07-02T22:39:12.419Z,91.67
2018-07-02T22:41:41.600Z,91.47
2018-07-02T22:44:10.761Z,91.59
2018-07-02T22:46:40.162Z,91.62
2018-07-02T22:49:09.544Z,91.42
2018-07-02T22:51:38.702Z,91.29
2018-07-02T22:54:07.909Z,91.30
2018-07-02T22:56:37.113Z,91.77
2018-07-02T22:59:06.277Z,91.52
2018-07-02T23:01:36.692Z,91.70
2018-07-02T23:04:06.044Z,91.56
2018-07-02T23:06:35.274Z,91.65
2018-07-02T23:09:06.310Z,91.68
2018-07-02T23:11:35.533Z,91.84
2018-07-02T23:14:04.755Z,92.43
2018-07-02T23:16:33.962Z,92.75
2018-07-02T23:19:03.514Z,93.25
2018-07-02T23:21:32.807Z,93.67
2018-07-02T23:24:02.023Z,93.67
2018-07-02T23:26:31.490Z,93.54
2018-07-02T23:29:00.685Z,93.71
2018-07-02T23:31:29.909Z,94.06
2018-07-02T23:33:59.129Z,94.30
2018-07-02T23:36:28.366Z,94.21
2018-07-02T23:38:57.573Z,94.62
2018-07-02T23:41:27.049Z,94.95
2018-07-02T23:43:56.267Z,95.00
2018-07-02T23:46:25.541Z,94.84
2018-07-02T23:48:54.733Z,95.22
2018-07-02T23:51:23.979Z,95.07
2018-07-02T23:53:53.136Z,95.37
2018-07-02T23:56:22.351Z,95.63
2018-07-02T23:58:51.581Z,96.05
